Terminal Aerodrome Forecast
Issued by NWS

Home | Current Version | Previous Version | Text Only | Print | Product List | Glossary On
Versions: 1 2 3 4 5 6 7 8 9 10 11 12 13
000
FTUS45 KRIW 302300
TAFBPI
TAF
KBPI 302337Z 3100/3124 29014G20KT P6SM SCT070 BKN090
     FM310200 33009KT P6SM SCT090 BKN150
     FM310600 VRB07KT P6SM VCSH SCT060 BKN090
     FM311700 27010KT P6SM FEW060
     FM312000 27015G25KT P6SM FEW050=

USA.gov is the U.S. government's official web portal to all federal, state and local government web resources and services.